createdAt,value
2018-06-30T00:00:08.289Z,19.20
2018-06-30T00:02:37.470Z,19.20
2018-06-30T00:05:06.161Z,19.20
2018-06-30T00:07:35.072Z,19.20
2018-06-30T00:10:04.149Z,19.20
2018-06-30T00:12:33.024Z,19.10
2018-06-30T00:15:01.765Z,18.90
2018-06-30T00:17:30.708Z,18.90
2018-06-30T00:19:59.452Z,18.90
2018-06-30T00:22:28.177Z,18.80
2018-06-30T00:24:58.692Z,18.70
2018-06-30T00:27:30.628Z,18.70
2018-06-30T00:30:01.554Z,18.70
2018-06-30T00:32:31.020Z,18.70
2018-06-30T00:34:59.790Z,17.70
2018-06-30T00:37:28.445Z,18.70
2018-06-30T00:39:57.248Z,18.70
2018-06-30T00:42:26.054Z,18.70
2018-06-30T00:44:54.739Z,18.70
2018-06-30T00:47:23.498Z,18.70
2018-06-30T00:49:52.200Z,18.70
2018-06-30T00:52:22.141Z,18.70
2018-06-30T00:54:50.934Z,17.80
2018-06-30T00:57:19.812Z,18.70
2018-06-30T00:59:48.570Z,18.70
2018-06-30T01:02:17.281Z,18.70
2018-06-30T01:04:46.031Z,18.70
2018-06-30T01:07:14.724Z,18.70
2018-06-30T01:09:43.630Z,18.70
2018-06-30T01:12:12.329Z,18.70
2018-06-30T01:14:41.007Z,18.60
2018-06-30T01:17:09.721Z,18.60
2018-06-30T01:19:38.830Z,18.60
2018-06-30T01:22:07.640Z,18.60
2018-06-30T01:24:37.379Z,18.50
2018-06-30T01:27:06.293Z,18.40
2018-06-30T01:29:35.272Z,18.40
2018-06-30T01:32:04.023Z,18.40
2018-06-30T01:34:32.815Z,18.30
2018-06-30T01:37:01.610Z,18.30
2018-06-30T01:39:30.318Z,18.30
2018-06-30T01:41:59.114Z,18.30
2018-06-30T01:44:27.883Z,18.30
2018-06-30T01:46:56.776Z,18.20
2018-06-30T01:49:25.491Z,18.20
2018-06-30T01:51:54.132Z,18.20
2018-06-30T01:54:22.836Z,18.20
2018-06-30T01:56:51.485Z,18.20
2018-06-30T01:59:20.335Z,18.00
2018-06-30T02:01:49.111Z,18.30
2018-06-30T02:04:17.798Z,18.40
2018-06-30T02:06:46.591Z,18.20
2018-06-30T02:09:15.615Z,17.80
2018-06-30T02:11:44.611Z,17.70
2018-06-30T02:14:13.536Z,17.70
2018-06-30T02:16:42.384Z,17.70
2018-06-30T02:19:16.203Z,17.80
2018-06-30T02:21:45.155Z,17.90
2018-06-30T02:24:13.783Z,18.00
2018-06-30T02:26:42.579Z,18.10
2018-06-30T02:29:11.459Z,18.20
2018-06-30T02:31:40.187Z,18.30
2018-06-30T02:34:08.931Z,18.30
2018-06-30T02:36:37.712Z,18.40
2018-06-30T02:39:07.752Z,18.40
2018-06-30T02:41:36.392Z,18.40
2018-06-30T02:44:05.315Z,18.40
2018-06-30T02:46:34.246Z,18.50
2018-06-30T02:49:03.052Z,18.50
2018-06-30T02:51:31.923Z,18.60
2018-06-30T02:54:01.106Z,18.50
2018-06-30T02:56:29.935Z,18.50
2018-06-30T02:59:00.059Z,18.50
2018-06-30T03:01:28.869Z,18.40
2018-06-30T03:03:57.672Z,18.40
2018-06-30T03:06:26.371Z,18.50
2018-06-30T03:08:55.192Z,18.50
2018-06-30T03:11:23.858Z,18.50
2018-06-30T03:13:52.774Z,18.40
2018-06-30T03:16:21.568Z,18.40
2018-06-30T03:18:50.411Z,18.40
2018-06-30T03:21:19.113Z,18.40
2018-06-30T03:23:47.838Z,18.40
2018-06-30T03:26:17.630Z,18.40
2018-06-30T03:28:46.291Z,18.40
2018-06-30T03:31:17.346Z,18.40
2018-06-30T03:33:46.134Z,18.40
2018-06-30T03:36:14.810Z,18.40
2018-06-30T03:38:43.544Z,18.50
2018-06-30T03:41:12.192Z,18.50
2018-06-30T03:43:41.240Z,18.60
2018-06-30T03:46:10.005Z,18.40
2018-06-30T03:48:38.658Z,18.40
2018-06-30T03:51:07.450Z,18.50
2018-06-30T03:53:36.310Z,18.50
2018-06-30T03:56:05.091Z,18.50
2018-06-30T03:58:33.986Z,18.50
2018-06-30T04:01:03.309Z,18.60
2018-06-30T04:03:32.113Z,18.60
2018-06-30T04:06:00.835Z,18.70
2018-06-30T04:08:29.608Z,18.70
2018-06-30T04:10:58.326Z,18.80
2018-06-30T04:13:26.976Z,19.30
2018-06-30T04:15:57.198Z,18.70
2018-06-30T04:18:25.999Z,18.70
2018-06-30T04:20:54.794Z,18.70
2018-06-30T04:23:24.621Z,18.70
2018-06-30T04:25:53.381Z,19.30
2018-06-30T04:28:22.134Z,18.80
2018-06-30T04:30:50.947Z,18.80
2018-06-30T04:33:19.691Z,18.80
2018-06-30T04:35:48.534Z,18.80
2018-06-30T04:38:18.868Z,18.80
2018-06-30T04:40:47.682Z,19.50
2018-06-30T04:43:16.470Z,18.80
2018-06-30T04:45:45.245Z,18.90
2018-06-30T04:48:14.069Z,18.80
2018-06-30T04:50:43.106Z,18.80
2018-06-30T04:53:11.769Z,18.90
2018-06-30T04:55:40.680Z,18.90
2018-06-30T04:58:09.603Z,19.00
2018-06-30T05:00:38.372Z,19.10
2018-06-30T05:03:07.172Z,19.20
2018-06-30T05:05:35.985Z,19.30
2018-06-30T05:08:04.730Z,19.40
2018-06-30T05:10:34.888Z,19.50
2018-06-30T05:13:03.644Z,19.40
2018-06-30T05:15:32.443Z,19.40
2018-06-30T05:18:01.412Z,19.40
2018-06-30T05:20:30.090Z,19.30
2018-06-30T05:22:59.122Z,19.40
2018-06-30T05:25:27.937Z,18.40
2018-06-30T05:27:56.631Z,19.40
2018-06-30T05:30:31.333Z,19.40
2018-06-30T05:33:00.479Z,18.90
2018-06-30T05:35:29.307Z,19.50
2018-06-30T05:37:57.995Z,19.40
2018-06-30T05:40:26.658Z,19.40
2018-06-30T05:42:55.430Z,18.30
2018-06-30T05:45:24.271Z,19.50
2018-06-30T05:47:53.292Z,19.50
2018-06-30T05:50:23.331Z,19.50
2018-06-30T05:52:52.032Z,19.60
2018-06-30T05:55:20.835Z,19.70
2018-06-30T05:57:49.494Z,19.70
2018-06-30T06:00:18.330Z,19.90
2018-06-30T06:02:47.109Z,20.00
2018-06-30T06:05:15.927Z,20.20
2018-06-30T06:07:44.606Z,20.30
2018-06-30T06:10:14.480Z,20.30
2018-06-30T06:12:44.362Z,20.40
2018-06-30T06:15:13.325Z,20.30
2018-06-30T06:17:41.923Z,20.40
2018-06-30T06:20:10.816Z,20.10
2018-06-30T06:22:41.183Z,20.30
2018-06-30T06:25:10.052Z,20.20
2018-06-30T06:27:38.791Z,20.20
2018-06-30T06:30:08.140Z,20.20
2018-06-30T06:32:37.282Z,20.30
2018-06-30T06:35:06.384Z,20.40
2018-06-30T06:37:35.113Z,20.50
2018-06-30T06:40:04.010Z,20.90
2018-06-30T06:42:33.002Z,20.60
2018-06-30T06:45:01.646Z,20.60
2018-06-30T06:47:30.856Z,20.70
2018-06-30T06:49:59.767Z,20.80
2018-06-30T06:52:29.342Z,21.00
2018-06-30T06:54:58.234Z,21.20
2018-06-30T06:57:27.004Z,21.30
2018-06-30T06:59:56.578Z,21.40
2018-06-30T07:02:25.415Z,21.40
2018-06-30T07:04:55.016Z,21.30
2018-06-30T07:07:23.886Z,21.30
2018-06-30T07:09:52.743Z,21.40
2018-06-30T07:12:21.562Z,21.40
2018-06-30T07:14:50.654Z,21.50
2018-06-30T07:17:19.605Z,21.50
2018-06-30T07:19:48.826Z,21.70
2018-06-30T07:22:18.820Z,21.80
2018-06-30T07:24:48.183Z,21.70
2018-06-30T07:27:16.936Z,21.80
2018-06-30T07:29:45.929Z,22.00
2018-06-30T07:32:15.246Z,22.00
2018-06-30T07:34:46.601Z,20.10
2018-06-30T07:37:16.046Z,22.20
2018-06-30T07:39:47.235Z,22.30
2018-06-30T07:42:16.061Z,22.50
2018-06-30T07:44:46.452Z,22.60
2018-06-30T07:47:15.258Z,22.70
2018-06-30T07:49:44.008Z,22.90
2018-06-30T07:52:12.949Z,23.10
2018-06-30T07:54:42.064Z,23.30
2018-06-30T07:57:10.793Z,23.40
2018-06-30T07:59:39.479Z,23.50
2018-06-30T08:02:08.321Z,23.70
2018-06-30T08:04:37.223Z,23.70
2018-06-30T08:07:06.054Z,23.70
2018-06-30T08:09:38.845Z,23.60
2018-06-30T08:12:07.603Z,24.40
2018-06-30T08:14:36.452Z,23.90
2018-06-30T08:17:05.278Z,23.90
2018-06-30T08:19:33.988Z,24.00
2018-06-30T08:22:02.715Z,24.30
2018-06-30T08:24:31.438Z,24.60
2018-06-30T08:27:00.563Z,24.10
2018-06-30T08:29:29.315Z,24.60
2018-06-30T08:31:58.107Z,24.30
2018-06-30T08:34:26.869Z,23.90
2018-06-30T08:36:55.844Z,24.00
2018-06-30T08:39:25.378Z,24.30
2018-06-30T08:41:54.152Z,24.20
2018-06-30T08:44:22.966Z,23.90
2018-06-30T08:46:52.105Z,23.60
2018-06-30T08:49:20.870Z,23.60
2018-06-30T08:51:49.708Z,23.80
2018-06-30T08:54:18.756Z,23.90
2018-06-30T08:56:47.636Z,23.90
2018-06-30T08:59:16.731Z,23.90
2018-06-30T09:01:45.844Z,24.10
2018-06-30T09:04:14.687Z,24.30
2018-06-30T09:06:43.898Z,24.20
2018-06-30T09:09:12.956Z,24.00
2018-06-30T09:11:42.270Z,23.80
2018-06-30T09:14:11.840Z,23.70
2018-06-30T09:16:40.908Z,23.70
2018-06-30T09:19:09.639Z,23.80
2018-06-30T09:21:38.492Z,24.10
2018-06-30T09:24:07.215Z,24.10
2018-06-30T09:26:36.030Z,24.00
2018-06-30T09:29:05.249Z,24.00
2018-06-30T09:31:34.052Z,24.10
2018-06-30T09:34:02.843Z,24.30
2018-06-30T09:36:31.518Z,24.40
2018-06-30T09:39:00.201Z,24.50
2018-06-30T09:41:29.091Z,24.30
2018-06-30T09:43:57.986Z,24.20
2018-06-30T09:46:26.701Z,24.30
2018-06-30T09:48:55.467Z,24.40
2018-06-30T09:51:24.286Z,24.60
2018-06-30T09:53:53.244Z,24.70
2018-06-30T09:56:22.057Z,24.60
2018-06-30T09:58:50.871Z,24.80
2018-06-30T10:01:19.714Z,25.10
2018-06-30T10:03:49.457Z,25.30
2018-06-30T10:06:18.088Z,25.20
2018-06-30T10:08:46.860Z,25.20
2018-06-30T10:11:15.660Z,25.70
2018-06-30T10:13:45.280Z,25.80
2018-06-30T10:16:14.022Z,25.60
2018-06-30T10:18:42.796Z,25.20
2018-06-30T10:21:12.105Z,25.20
2018-06-30T10:23:40.942Z,25.00
2018-06-30T10:26:09.712Z,24.80
2018-06-30T10:28:38.464Z,24.90
2018-06-30T10:31:07.212Z,24.90
2018-06-30T10:33:36.223Z,24.30
2018-06-30T10:36:05.149Z,25.00
2018-06-30T10:38:34.151Z,25.10
2018-06-30T10:41:02.971Z,25.20
2018-06-30T10:43:31.775Z,25.20
2018-06-30T10:46:00.676Z,25.20
2018-06-30T10:48:29.488Z,25.50
2018-06-30T10:50:58.226Z,25.30
2018-06-30T10:53:26.984Z,25.30
2018-06-30T10:55:55.697Z,26.00
2018-06-30T10:58:24.431Z,26.00
2018-06-30T11:00:53.805Z,25.90
2018-06-30T11:03:30.811Z,25.60
2018-06-30T11:06:06.777Z,25.60
2018-06-30T11:08:35.745Z,24.90
2018-06-30T11:11:04.565Z,25.10
2018-06-30T11:13:33.122Z,24.70
2018-06-30T11:16:01.999Z,24.50
2018-06-30T11:18:30.726Z,24.20
2018-06-30T11:20:59.465Z,24.00
2018-06-30T11:23:28.192Z,24.40
2018-06-30T11:25:57.029Z,25.10
2018-06-30T11:28:25.806Z,25.80
2018-06-30T11:30:54.495Z,25.90
2018-06-30T11:33:23.442Z,25.20
2018-06-30T11:35:52.279Z,25.00
2018-06-30T11:38:21.001Z,24.70
2018-06-30T11:40:50.268Z,24.50
2018-06-30T11:43:18.871Z,24.20
2018-06-30T11:45:49.698Z,24.20
2018-06-30T11:48:20.976Z,24.20
2018-06-30T11:50:49.701Z,22.90
2018-06-30T11:53:18.476Z,24.50
2018-06-30T11:55:47.160Z,24.50
2018-06-30T11:58:15.933Z,24.50
2018-06-30T12:00:44.735Z,24.50
2018-06-30T12:03:13.599Z,24.50
2018-06-30T12:05:42.587Z,24.40
2018-06-30T12:08:11.327Z,24.40
2018-06-30T12:10:40.382Z,24.50
2018-06-30T12:13:09.116Z,25.60
2018-06-30T12:15:37.817Z,27.50
2018-06-30T12:18:06.754Z,28.90
2018-06-30T12:20:37.431Z,28.00
2018-06-30T12:23:08.524Z,26.70
2018-06-30T12:25:39.476Z,25.90
2018-06-30T12:28:08.384Z,25.80
2018-06-30T12:30:38.314Z,25.80
2018-06-30T12:33:07.052Z,25.90
2018-06-30T12:35:37.063Z,26.80
2018-06-30T12:38:05.962Z,26.60
2018-06-30T12:40:34.646Z,26.40
2018-06-30T12:43:03.729Z,27.40
2018-06-30T12:45:32.746Z,28.60
2018-06-30T12:48:01.795Z,29.80
2018-06-30T12:50:30.555Z,30.80
2018-06-30T12:52:59.568Z,31.10
2018-06-30T12:55:30.249Z,31.00
2018-06-30T12:57:58.944Z,30.10
2018-06-30T13:00:29.155Z,30.40
2018-06-30T13:02:57.815Z,30.70
2018-06-30T13:05:27.702Z,30.00
2018-06-30T13:07:56.532Z,29.70
2018-06-30T13:10:25.654Z,29.60
2018-06-30T13:12:54.354Z,29.30
2018-06-30T13:15:23.103Z,29.90
2018-06-30T13:17:53.454Z,30.70
2018-06-30T13:20:22.175Z,31.30
2018-06-30T13:22:50.970Z,32.00
2018-06-30T13:25:19.758Z,32.40
2018-06-30T13:27:48.497Z,32.10
2018-06-30T13:30:19.327Z,31.90
2018-06-30T13:32:48.079Z,32.50
2018-06-30T13:35:18.396Z,32.20
2018-06-30T13:37:47.063Z,31.60
2018-06-30T13:40:15.885Z,31.30
2018-06-30T13:42:44.752Z,31.10
2018-06-30T13:45:13.712Z,32.50
2018-06-30T13:47:42.760Z,32.80
2018-06-30T13:50:12.424Z,33.10
2018-06-30T13:52:41.296Z,33.20
2018-06-30T13:55:10.176Z,32.50
2018-06-30T13:57:40.342Z,33.10
2018-06-30T14:00:09.102Z,33.40
2018-06-30T14:02:37.870Z,31.70
2018-06-30T14:05:06.933Z,33.30
2018-06-30T14:07:36.050Z,33.30
2018-06-30T14:10:05.988Z,33.50
2018-06-30T14:12:34.828Z,33.60
2018-06-30T14:15:04.598Z,33.80
2018-06-30T14:17:33.329Z,33.60
2018-06-30T14:20:02.081Z,33.50
2018-06-30T14:22:30.761Z,32.80
2018-06-30T14:24:59.484Z,32.20
2018-06-30T14:27:28.284Z,32.10
2018-06-30T14:29:57.082Z,32.70
2018-06-30T14:32:25.890Z,33.30
2018-06-30T14:34:54.817Z,33.80
2018-06-30T14:37:23.628Z,33.20
2018-06-30T14:39:52.514Z,32.10
2018-06-30T14:42:22.411Z,33.20
2018-06-30T14:44:51.154Z,33.50
2018-06-30T14:47:23.825Z,32.50
2018-06-30T14:49:55.718Z,33.10
2018-06-30T14:52:24.523Z,32.40
2018-06-30T14:54:53.727Z,33.50
2018-06-30T14:57:22.420Z,33.10
2018-06-30T14:59:51.191Z,33.20
2018-06-30T15:02:20.024Z,33.50
2018-06-30T15:04:48.802Z,33.30
2018-06-30T15:07:17.442Z,32.40
2018-06-30T15:09:46.169Z,32.90
2018-06-30T15:12:15.101Z,30.20
2018-06-30T15:14:43.863Z,31.20
2018-06-30T15:17:12.646Z,32.40
2018-06-30T15:19:41.745Z,33.80
2018-06-30T15:22:10.662Z,33.50
2018-06-30T15:24:39.555Z,33.70
2018-06-30T15:27:08.232Z,33.20
2018-06-30T15:29:37.063Z,32.70
2018-06-30T15:32:08.459Z,32.70
2018-06-30T15:34:37.203Z,32.80
2018-06-30T15:37:06.042Z,33.10
2018-06-30T15:39:34.909Z,33.00
2018-06-30T15:42:05.255Z,32.40
2018-06-30T15:44:34.506Z,30.50
2018-06-30T15:47:03.276Z,30.10
2018-06-30T15:49:32.073Z,29.00
2018-06-30T15:52:02.394Z,26.30
2018-06-30T15:54:31.225Z,27.20
2018-06-30T15:57:01.047Z,26.90
2018-06-30T15:59:34.304Z,26.50
2018-06-30T16:02:08.604Z,26.40
2018-06-30T16:04:37.493Z,26.30
2018-06-30T16:07:06.290Z,26.40
2018-06-30T16:09:34.905Z,26.30
2018-06-30T16:12:03.716Z,26.20
2018-06-30T16:14:32.664Z,26.00
2018-06-30T16:17:01.554Z,26.10
2018-06-30T16:19:30.235Z,26.10
2018-06-30T16:21:59.036Z,25.90
2018-06-30T16:24:29.221Z,25.70
2018-06-30T16:26:58.003Z,25.90
2018-06-30T16:29:26.784Z,26.00
2018-06-30T16:31:55.530Z,26.10
2018-06-30T16:34:24.382Z,25.90
2018-06-30T16:36:53.101Z,25.80
2018-06-30T16:39:21.899Z,25.70
2018-06-30T16:41:50.606Z,25.80
2018-06-30T16:44:19.494Z,25.60
2018-06-30T16:46:48.202Z,25.00
2018-06-30T16:49:17.294Z,25.20
2018-06-30T16:51:45.986Z,24.90
2018-06-30T16:54:15.783Z,25.10
2018-06-30T16:56:44.490Z,25.20
2018-06-30T16:59:13.209Z,25.20
2018-06-30T17:01:41.918Z,25.20
2018-06-30T17:04:10.704Z,25.20
2018-06-30T17:06:39.538Z,25.00
2018-06-30T17:09:11.842Z,25.10
2018-06-30T17:11:40.577Z,24.80
2018-06-30T17:14:09.303Z,24.80
2018-06-30T17:16:38.255Z,24.80
2018-06-30T17:19:07.178Z,24.70
2018-06-30T17:21:36.679Z,24.60
2018-06-30T17:24:07.720Z,24.60
2018-06-30T17:26:36.405Z,24.90
2018-06-30T17:29:05.180Z,24.60
2018-06-30T17:31:34.085Z,24.60
2018-06-30T17:34:02.806Z,24.50
2018-06-30T17:36:32.518Z,24.30
2018-06-30T17:39:01.261Z,24.20
2018-06-30T17:41:30.102Z,24.20
2018-06-30T17:43:58.944Z,24.20
2018-06-30T17:46:27.846Z,23.90
2018-06-30T17:48:56.538Z,24.00
2018-06-30T17:51:25.194Z,24.00
2018-06-30T17:53:55.116Z,24.00
2018-06-30T17:56:24.630Z,24.00
2018-06-30T17:58:53.512Z,24.00
2018-06-30T18:01:22.413Z,23.90
2018-06-30T18:03:51.094Z,23.80
2018-06-30T18:06:19.981Z,23.70
2018-06-30T18:08:48.825Z,23.70
2018-06-30T18:11:17.577Z,23.70
2018-06-30T18:13:46.932Z,23.40
2018-06-30T18:16:17.593Z,23.40
2018-06-30T18:18:46.497Z,23.30
2018-06-30T18:21:15.303Z,23.20
2018-06-30T18:23:44.353Z,23.00
2018-06-30T18:26:13.167Z,23.00
2018-06-30T18:28:42.008Z,23.00
2018-06-30T18:31:11.649Z,22.80
2018-06-30T18:33:40.502Z,22.30
2018-06-30T18:36:09.292Z,22.80
2018-06-30T18:38:38.121Z,22.80
2018-06-30T18:41:06.948Z,22.70
2018-06-30T18:43:35.735Z,22.70
2018-06-30T18:46:04.624Z,22.60
2018-06-30T18:48:34.083Z,22.50
2018-06-30T18:51:02.766Z,22.50
2018-06-30T18:53:31.545Z,22.40
2018-06-30T18:56:00.940Z,22.40
2018-06-30T18:58:29.770Z,22.30
2018-06-30T19:00:58.720Z,22.30
2018-06-30T19:03:27.473Z,22.20
2018-06-30T19:05:56.263Z,20.70
2018-06-30T19:08:25.042Z,22.10
2018-06-30T19:10:54.418Z,22.00
2018-06-30T19:13:23.083Z,21.90
2018-06-30T19:15:51.887Z,21.80
2018-06-30T19:18:20.542Z,21.70
2018-06-30T19:20:49.192Z,21.70
2018-06-30T19:23:17.826Z,21.60
2018-06-30T19:25:46.624Z,21.50
2018-06-30T19:28:22.151Z,21.50
2018-06-30T19:30:55.746Z,21.40
2018-06-30T19:33:28.908Z,21.40
2018-06-30T19:35:57.751Z,21.30
2018-06-30T19:38:26.444Z,21.20
2018-06-30T19:40:55.134Z,21.10
2018-06-30T19:43:23.974Z,21.10
2018-06-30T19:45:52.861Z,21.00
2018-06-30T19:48:21.605Z,20.90
2018-06-30T19:50:50.306Z,20.70
2018-06-30T19:53:19.222Z,20.60
2018-06-30T19:55:47.915Z,20.50
2018-06-30T19:58:16.799Z,20.50
2018-06-30T20:00:45.525Z,20.30
2018-06-30T20:03:14.160Z,20.30
2018-06-30T20:05:42.932Z,20.20
2018-06-30T20:08:11.606Z,20.20
2018-06-30T20:10:40.280Z,20.10
2018-06-30T20:13:09.056Z,20.10
2018-06-30T20:15:37.723Z,20.00
2018-06-30T20:18:06.548Z,20.00
2018-06-30T20:20:35.338Z,20.00
2018-06-30T20:23:04.199Z,20.00
2018-06-30T20:25:32.875Z,19.90
2018-06-30T20:28:01.756Z,19.90
2018-06-30T20:30:30.669Z,19.80
2018-06-30T20:32:59.461Z,19.80
2018-06-30T20:35:30.213Z,19.80
2018-06-30T20:37:59.069Z,19.80
2018-06-30T20:40:27.759Z,19.70
2018-06-30T20:42:56.380Z,19.60
2018-06-30T20:45:25.381Z,19.50
2018-06-30T20:47:54.078Z,19.50
2018-06-30T20:50:26.372Z,19.40
2018-06-30T20:52:55.126Z,19.30
2018-06-30T20:55:24.072Z,19.30
2018-06-30T20:57:53.007Z,19.20
2018-06-30T21:00:21.757Z,17.40
2018-06-30T21:02:50.404Z,19.10
2018-06-30T21:05:19.084Z,19.10
2018-06-30T21:07:48.097Z,19.10
2018-06-30T21:10:16.839Z,19.10
2018-06-30T21:12:45.929Z,19.10
2018-06-30T21:15:14.770Z,19.10
2018-06-30T21:17:43.684Z,20.20
2018-06-30T21:20:12.531Z,19.10
2018-06-30T21:22:41.397Z,19.10
2018-06-30T21:25:10.074Z,19.00
2018-06-30T21:27:38.826Z,17.60
2018-06-30T21:30:07.558Z,18.90
2018-06-30T21:32:36.235Z,18.80
2018-06-30T21:35:05.032Z,18.80
2018-06-30T21:37:34.028Z,18.70
2018-06-30T21:40:02.787Z,18.70
2018-06-30T21:42:31.524Z,18.70
2018-06-30T21:45:00.359Z,18.70
2018-06-30T21:47:29.474Z,18.60
2018-06-30T21:49:58.420Z,18.60
2018-06-30T21:52:27.205Z,18.60
2018-06-30T21:54:56.059Z,18.60
2018-06-30T21:57:25.886Z,18.50
2018-06-30T21:59:54.753Z,18.50
2018-06-30T22:02:25.238Z,18.40
2018-06-30T22:04:55.809Z,18.40
2018-06-30T22:07:24.684Z,18.40
2018-06-30T22:09:57.706Z,18.30
2018-06-30T22:12:26.446Z,18.00
2018-06-30T22:14:55.152Z,17.40
2018-06-30T22:17:24.223Z,17.20
2018-06-30T22:19:53.959Z,17.30
2018-06-30T22:22:23.047Z,17.60
2018-06-30T22:24:51.981Z,17.80
2018-06-30T22:27:22.111Z,17.70
2018-06-30T22:29:50.907Z,17.70
2018-06-30T22:32:19.654Z,17.80
2018-06-30T22:34:48.386Z,17.80
2018-06-30T22:37:17.034Z,17.80
2018-06-30T22:39:56.788Z,17.80
2018-06-30T22:42:25.538Z,17.60
2018-06-30T22:44:54.299Z,17.70
2018-06-30T22:47:22.979Z,17.70
2018-06-30T22:49:51.709Z,17.60
2018-06-30T22:52:21.718Z,17.60
2018-06-30T22:54:50.455Z,17.60
2018-06-30T22:57:19.302Z,17.50
2018-06-30T22:59:47.985Z,17.50
2018-06-30T23:02:16.759Z,17.60
2018-06-30T23:04:47.913Z,17.50
2018-06-30T23:07:16.659Z,17.50
2018-06-30T23:09:45.509Z,16.90
2018-06-30T23:12:14.236Z,17.40
2018-06-30T23:14:43.128Z,17.20
2018-06-30T23:17:11.802Z,17.00
2018-06-30T23:19:40.901Z,17.10
2018-06-30T23:22:09.664Z,17.20
2018-06-30T23:24:40.833Z,17.20
2018-06-30T23:27:09.652Z,17.30
2018-06-30T23:29:38.497Z,17.30
2018-06-30T23:32:07.368Z,17.20
2018-06-30T23:34:36.412Z,17.10
2018-06-30T23:37:05.774Z,17.00
2018-06-30T23:39:34.620Z,16.20
2018-06-30T23:42:03.373Z,16.80
2018-06-30T23:44:32.105Z,16.70
2018-06-30T23:47:00.675Z,16.80
2018-06-30T23:49:29.423Z,16.90
2018-06-30T23:51:58.037Z,16.90
2018-06-30T23:54:26.705Z,16.80
2018-06-30T23:56:56.562Z,16.70
2018-06-30T23:59:25.353Z,16.70
